MSC Turchia — A8IL9 — position and weather

sailwx.info

Track history (hours):
 
Tides and Currents Weather Stations Pressure Air Temp Water Temp Dewpoint Dewpoint Depression Visibility Wind Speed Wind Dir Waves Ship Positions

MSC Turchia

Last reported at 2015-Aug-27 17:16 UTC. Time now 2015-Aug-30 22:38 UTC.
Position S 13°06' W 038°26'.

Length 276 m; beam 40 m; draft 14 m.

Type: Ship. MMSI: 636091212.

Date/timePositionNaut miles runAvg speedWind from/ knotsBaromVisibWave heightAir tempDewpointWater temp
2015-Aug-27 17:16S 13°06' W 038°26'912.2
2015-Aug-27 16:33S 13°02' W 038°34'5 5.2
2015-Aug-27 15:33S 12°57' W 038°30'0 0.0
2015-Aug-27 14:32S 12°57' W 038°30'0 0.0
2015-Aug-27 13:32S 12°57' W 038°30'0 0.0
2015-Aug-27 12:32S 12°57' W 038°30'0 0.0
2015-Aug-27 11:32S 12°57' W 038°30'0 0.0
2015-Aug-27 10:32S 12°57' W 038°30'0 0.0
2015-Aug-27 09:32S 12°57' W 038°30'0 0.0
2015-Aug-27 08:32S 12°57' W 038°30'1 0.6
2015-Aug-27 07:34S 12°57' W 038°31'5 5.1
2015-Aug-27 06:33S 13°01' W 038°33'1110.7
2015-Aug-27 05:33S 13°12' W 038°32'3 3.0
2015-Aug-27 04:33S 13°15' W 038°31'1 0.7
2015-Aug-27 03:20S 13°16' W 038°31'5 2.4
2015-Aug-27 01:29S 13°20' W 038°32'  
2015-Aug-23 14:09S 23°51' W 044°46'1117.8
2015-Aug-23 13:33S 23°56' W 044°57'2118.1
2015-Aug-23 12:24S 24°06' W 045°17'1618.1
2015-Aug-23 11:32S 24°13' W 045°32'2217.9
2015-Aug-23 10:20S 24°15' W 045°55'1418.4
2015-Aug-23 09:33S 24°15' W 046°11'1515.2
2015-Aug-23 08:33S 24°03' W 046°21'7 6.2
2015-Aug-23 07:30S 23°58' W 046°18'0 0.1
2015-Aug-23 06:33S 23°58' W 046°18'0 0.0
2015-Aug-23 05:13S 23°58' W 046°18'0 0.0
2015-Aug-23 04:16S 23°58' W 046°18'0 0.0
2015-Aug-23 03:28S 23°58' W 046°18'0 0.0
2015-Aug-23 01:28S 23°58' W 046°18'0 0.0
2015-Aug-22 23:22S 23°58' W 046°18'0 0.0
2015-Aug-22 22:22S 23°58' W 046°18'0 0.0
2015-Aug-22 21:25S 23°58' W 046°18'0 0.0
2015-Aug-22 19:07S 23°58' W 046°18'0 0.0
2015-Aug-22 17:28S 23°58' W 046°18'0 0.0
2015-Aug-22 16:28S 23°58' W 046°18'0 0.0
2015-Aug-22 14:22S 23°58' W 046°18'0 0.0
2015-Aug-22 11:22S 23°58' W 046°18'0 0.0
2015-Aug-22 10:25S 23°58' W 046°18'2 2.3
2015-Aug-22 09:33S 23°60' W 046°18'6 5.8
2015-Aug-22 08:33S 24°04' W 046°23'7 6.7
2015-Aug-22 07:33S 24°10' W 046°25'8 7.8
2015-Aug-22 06:33S 24°17' W 046°28'8 7.7
2015-Aug-22 05:33S 24°24' W 046°32'10 9.8
2015-Aug-22 04:33S 24°33' W 046°37'190 5.1
2015-Aug-20 15:18S 27°22' W 048°13'1216.5
2015-Aug-20 14:33S 27°34' W 048°14'  
Track history (hours):
 
Tides and Currents Weather Stations Pressure Air Temp Water Temp Dewpoint Dewpoint Depression Visibility Wind Speed Wind Dir Waves Ship Positions

MSC Turchia

Last reported at 2015-Aug-27 17:16 UTC. Time now 2015-Aug-30 22:38 UTC.
Position S 13°06' W 038°26'.

Length 276 m; beam 40 m; draft 14 m.

Type: Ship. MMSI: 636091212.

Date/timePositionNaut miles runAvg speedWind from/ knotsBaromVisibWave heightAir tempDewpointWater temp
2015-Aug-27 17:16S 13°06' W 038°26'912.2
2015-Aug-27 16:33S 13°02' W 038°34'5 5.2
2015-Aug-27 15:33S 12°57' W 038°30'0 0.0
2015-Aug-27 14:32S 12°57' W 038°30'0 0.0
2015-Aug-27 13:32S 12°57' W 038°30'0 0.0
2015-Aug-27 12:32S 12°57' W 038°30'0 0.0
2015-Aug-27 11:32S 12°57' W 038°30'0 0.0
2015-Aug-27 10:32S 12°57' W 038°30'0 0.0
2015-Aug-27 09:32S 12°57' W 038°30'0 0.0
2015-Aug-27 08:32S 12°57' W 038°30'1 0.6
2015-Aug-27 07:34S 12°57' W 038°31'5 5.1
2015-Aug-27 06:33S 13°01' W 038°33'1110.7
2015-Aug-27 05:33S 13°12' W 038°32'3 3.0
2015-Aug-27 04:33S 13°15' W 038°31'1 0.7
2015-Aug-27 03:20S 13°16' W 038°31'5 2.4
2015-Aug-27 01:29S 13°20' W 038°32'  
2015-Aug-23 14:09S 23°51' W 044°46'1117.8
2015-Aug-23 13:33S 23°56' W 044°57'2118.1
2015-Aug-23 12:24S 24°06' W 045°17'1618.1
2015-Aug-23 11:32S 24°13' W 045°32'2217.9
2015-Aug-23 10:20S 24°15' W 045°55'1418.4
2015-Aug-23 09:33S 24°15' W 046°11'1515.2
2015-Aug-23 08:33S 24°03' W 046°21'7 6.2
2015-Aug-23 07:30S 23°58' W 046°18'0 0.1
2015-Aug-23 06:33S 23°58' W 046°18'0 0.0
2015-Aug-23 05:13S 23°58' W 046°18'0 0.0
2015-Aug-23 04:16S 23°58' W 046°18'0 0.0
2015-Aug-23 03:28S 23°58' W 046°18'0 0.0
2015-Aug-23 01:28S 23°58' W 046°18'0 0.0
2015-Aug-22 23:22S 23°58' W 046°18'0 0.0
2015-Aug-22 22:22S 23°58' W 046°18'0 0.0
2015-Aug-22 21:25S 23°58' W 046°18'0 0.0
2015-Aug-22 19:07S 23°58' W 046°18'0 0.0
2015-Aug-22 17:28S 23°58' W 046°18'0 0.0
2015-Aug-22 16:28S 23°58' W 046°18'0 0.0
2015-Aug-22 14:22S 23°58' W 046°18'0 0.0
2015-Aug-22 11:22S 23°58' W 046°18'0 0.0
2015-Aug-22 10:25S 23°58' W 046°18'2 2.3
2015-Aug-22 09:33S 23°60' W 046°18'6 5.8
2015-Aug-22 08:33S 24°04' W 046°23'7 6.7
2015-Aug-22 07:33S 24°10' W 046°25'8 7.8
2015-Aug-22 06:33S 24°17' W 046°28'8 7.7
2015-Aug-22 05:33S 24°24' W 046°32'10 9.8
2015-Aug-22 04:33S 24°33' W 046°37'190 5.1
2015-Aug-20 15:18S 27°22' W 048°13'1216.5
2015-Aug-20 14:33S 27°34' W 048°14'  

Dump ship's entire track history